Time;durP1;ratioP1;P1;durP2;ratioP2;P2;SDS_P1;SDS_P2;PMS_P1;PMS_P2;Temp;Humidity;BMP_temperature;BMP_pressure;BME280_temperature;BME280_humidity;BME280_pressure;Samples;Min_cycle;Max_cycle;Signal;HPM_P1;HPM_P2
2021/03/17 00:00:42;;;;;;;4.80;4.00;;;;;;;7.36;54.89;98082.41;5114982;28;20081;-76
2021/03/17 00:03:08;;;;;;;4.70;4.30;;;;;;;6.77;54.79;97993.63;5116069;28;20359;-77
2021/03/17 00:05:36;;;;;;;5.50;4.20;;;;;;;7.20;54.63;98062.53;5115119;28;20067;-77
2021/03/17 00:08:02;;;;;;;5.93;4.40;;;;;;;7.25;53.89;98057.50;5115124;28;20110;-78
2021/03/17 00:10:31;;;;;;;4.75;4.13;;;;;;;7.56;53.50;98090.44;5119261;28;20102;-79
2021/03/17 00:12:57;;;;;;;4.63;4.20;;;;;;;7.33;53.61;98086.25;5119478;28;20031;-76
2021/03/17 00:15:28;;;;;;;5.20;4.70;;;;;;;7.50;53.86;98086.75;5118961;28;20028;-78
2021/03/17 00:17:56;;;;;;;6.70;4.20;;;;;;;7.48;53.47;98088.78;5101139;28;20020;-77
2021/03/17 00:20:27;;;;;;;5.10;4.60;;;;;;;7.57;53.71;98086.81;5119045;28;20357;-76
2021/03/17 00:22:52;;;;;;;10.40;6.65;;;;;;;6.93;53.34;97995.16;5101147;28;20019;-77
2021/03/17 00:25:33;;;;;;;5.72;4.20;;;;;;;7.26;53.31;98035.50;5100952;28;20369;-78
2021/03/17 00:28:02;;;;;;;4.90;4.40;;;;;;;7.12;54.00;98020.69;5118937;28;20384;-76
2021/03/17 00:30:29;;;;;;;5.00;4.50;;;;;;;7.08;53.56;98031.78;5118818;28;20034;-78
2021/03/17 00:32:56;;;;;;;4.93;4.53;;;;;;;7.28;53.31;98049.25;5100746;28;20028;-77
2021/03/17 00:35:22;;;;;;;4.95;4.40;;;;;;;6.67;53.95;97964.28;5118874;28;20023;-76
2021/03/17 00:37:47;;;;;;;4.70;4.30;;;;;;;7.20;53.12;98041.53;5118917;28;20027;-76
2021/03/17 00:40:13;;;;;;;6.32;5.10;;;;;;;7.48;53.83;98073.03;5118725;28;20369;-76
2021/03/17 00:42:38;;;;;;;4.82;4.40;;;;;;;7.52;53.22;98081.31;5118825;28;20137;-78
2021/03/17 00:45:04;;;;;;;5.25;4.75;;;;;;;6.81;53.40;97984.38;5118617;28;20051;-78
2021/03/17 00:47:30;;;;;;;5.30;4.63;;;;;;;7.43;53.27;98093.78;5100572;28;20448;-78
2021/03/17 00:49:55;;;;;;;5.45;4.95;;;;;;;7.43;53.93;98088.53;5118774;28;20024;-77
2021/03/17 00:52:21;;;;;;;5.85;5.22;;;;;;;7.39;54.21;98076.78;5100302;28;20035;-77
2021/03/17 00:54:46;;;;;;;5.50;4.80;;;;;;;7.13;54.12;98029.38;5118678;28;20473;-77
2021/03/17 00:57:11;;;;;;;5.72;5.22;;;;;;;7.33;53.53;98051.28;5102195;28;20059;-79
2021/03/17 00:59:37;;;;;;;4.80;4.40;;;;;;;7.22;54.31;98046.59;5100936;28;20028;-78
2021/03/17 01:02:02;;;;;;;5.53;4.55;;;;;;;7.23;54.46;98063.97;5118769;28;20036;-78
2021/03/17 01:04:28;;;;;;;5.82;5.22;;;;;;;7.18;54.52;98053.22;5118294;28;20053;-78
2021/03/17 01:06:53;;;;;;;5.72;5.22;;;;;;;7.11;55.10;98062.88;5118633;28;20418;-77
2021/03/17 01:09:18;;;;;;;7.25;6.32;;;;;;;7.17;55.52;98068.16;5100075;28;20028;-77
2021/03/17 01:11:44;;;;;;;6.20;5.55;;;;;;;7.30;56.04;98110.25;5118266;28;20031;-77
2021/03/17 01:14:11;;;;;;;6.03;5.45;;;;;;;7.20;55.92;98077.47;5118169;28;20027;-76
2021/03/17 01:16:37;;;;;;;6.28;5.28;;;;;;;7.25;55.81;98072.44;5118002;28;20081;-76
2021/03/17 01:19:02;;;;;;;5.88;5.05;;;;;;;7.36;55.49;98081.59;5118103;28;20031;-76
2021/03/17 01:21:28;;;;;;;6.20;5.57;;;;;;;7.42;55.87;98081.66;5117091;28;20023;-78
2021/03/17 01:23:53;;;;;;;5.90;5.30;;;;;;;7.02;55.48;98033.34;5099890;28;20079;-76
2021/03/17 01:26:18;;;;;;;6.45;5.25;;;;;;;7.35;55.77;98078.16;5117730;28;20441;-77
2021/03/17 01:28:44;;;;;;;6.25;5.65;;;;;;;6.81;56.03;97992.25;5117867;28;20035;-76
2021/03/17 01:31:09;;;;;;;6.53;5.93;;;;;;;7.10;55.77;98037.63;5117979;28;20039;-78
2021/03/17 01:33:35;;;;;;;5.95;5.45;;;;;;;7.18;56.28;98059.28;5099549;28;20059;-75
2021/03/17 01:36:00;;;;;;;8.15;6.57;;;;;;;6.86;55.96;98004.78;5117715;28;20345;-77
2021/03/17 01:38:27;;;;;;;6.47;5.85;;;;;;;7.26;55.82;98068.81;5100107;28;20341;-77
2021/03/17 01:40:54;;;;;;;6.50;5.65;;;;;;;7.25;55.81;98056.69;5099660;28;20322;-79
2021/03/17 01:43:20;;;;;;;6.15;5.55;;;;;;;7.11;55.70;98031.38;5117410;28;20023;-77
2021/03/17 01:45:46;;;;;;;6.57;5.80;;;;;;;7.22;55.92;98064.97;5117522;28;20383;-79
2021/03/17 01:48:12;;;;;;;6.60;5.90;;;;;;;7.03;56.10;98057.78;5117545;28;20028;-78
2021/03/17 01:50:45;;;;;;;6.20;5.60;;;;;;;6.90;56.98;98040.94;5117425;28;20392;-77
2021/03/17 01:53:13;;;;;;;6.80;4.93;;;;;;;7.14;56.52;98062.50;5117464;28;20033;-76
2021/03/17 01:55:39;;;;;;;7.38;5.80;;;;;;;7.01;56.91;98061.41;5099237;28;20054;-78
2021/03/17 01:58:06;;;;;;;6.00;5.38;;;;;;;6.99;56.47;98047.66;5118009;28;20033;-76
2021/03/17 02:00:32;;;;;;;7.45;5.13;;;;;;;6.98;56.65;98038.16;5118306;28;20426;-76
2021/03/17 02:02:57;;;;;;;7.47;6.40;;;;;;;6.83;57.13;98037.47;5118915;28;20035;-76
2021/03/17 02:05:30;;;;;;;6.70;5.72;;;;;;;7.14;57.20;98081.69;5101219;28;20032;-77
2021/03/17 02:07:59;;;;;;;7.75;6.10;;;;;;;7.00;57.22;98048.47;5117195;28;20425;-76
2021/03/17 02:10:25;;;;;;;7.03;6.43;;;;;;;6.92;56.72;98046.00;5116851;28;20102;-76
2021/03/17 02:13:28;;;;;;;6.90;6.20;;;;;;;7.09;57.07;98046.50;5116955;28;20057;-76
2021/03/17 02:16:12;;;;;;;6.57;5.65;;;;;;;7.14;57.33;98065.13;5099624;28;20438;-77
2021/03/17 02:18:56;;;;;;;7.93;6.38;;;;;;;7.05;57.55;98050.53;5098739;28;20455;-76
2021/03/17 02:21:41;;;;;;;6.75;6.10;;;;;;;7.14;56.69;98059.88;5098626;28;20448;-77
2021/03/17 02:24:32;;;;;;;7.07;6.38;;;;;;;7.04;57.67;98054.16;5116808;28;20027;-77
2021/03/17 02:27:03;;;;;;;7.88;6.45;;;;;;;7.03;57.72;98068.28;5098624;28;20032;-76
2021/03/17 02:29:59;;;;;;;7.50;6.30;;;;;;;6.91;58.02;98052.25;5116605;28;20054;-76
2021/03/17 02:32:37;;;;;;;7.30;6.43;;;;;;;6.93;57.37;98074.66;5103058;22;20052;-75
2021/03/17 02:35:08;;;;;;;7.05;6.32;;;;;;;6.56;57.72;98014.63;5116453;28;20028;-75
2021/03/17 02:37:40;;;;;;;7.53;6.72;;;;;;;6.93;57.13;98047.63;5116432;28;20330;-77
2021/03/17 02:40:06;;;;;;;10.23;7.10;;;;;;;7.00;56.89;98069.47;5116645;28;20038;-79
2021/03/17 02:42:45;;;;;;;8.50;7.47;;;;;;;6.74;56.87;98019.44;5116522;28;20106;-77
2021/03/17 02:45:13;;;;;;;8.88;7.80;;;;;;;6.61;56.49;98010.44;5116629;28;20027;-78
2021/03/17 02:47:47;;;;;;;7.85;7.13;;;;;;;6.63;56.04;98000.56;5098658;28;20030;-77
2021/03/17 02:50:14;;;;;;;8.45;7.55;;;;;;;6.59;56.29;98016.88;5116444;28;20055;-80
2021/03/17 02:52:45;;;;;;;7.45;6.75;;;;;;;7.01;55.83;98061.41;5098032;28;20118;-79
2021/03/17 02:55:12;;;;;;;8.05;7.25;;;;;;;6.99;55.88;98058.16;5098091;28;20019;-76
2021/03/17 02:57:40;;;;;;;8.40;7.47;;;;;;;6.99;55.64;98065.22;5098069;28;20059;-76
2021/03/17 03:00:09;;;;;;;10.35;7.47;;;;;;;7.01;55.33;98057.97;5116293;28;20038;-77
2021/03/17 03:02:35;;;;;;;7.93;7.13;;;;;;;6.58;55.84;97994.28;5116207;28;20070;-75
2021/03/17 03:05:02;;;;;;;9.38;7.50;;;;;;;6.67;55.38;98004.44;5116218;28;20442;-80
2021/03/17 03:07:31;;;;;;;8.00;7.20;;;;;;;6.50;55.66;97968.19;5119552;28;20038;-77
2021/03/17 03:09:58;;;;;;;8.50;7.60;;;;;;;7.06;55.83;98065.25;5120957;28;20024;-77
2021/03/17 03:12:24;;;;;;;8.55;7.65;;;;;;;6.85;55.14;98009.22;5115829;28;20027;-75
2021/03/17 03:14:52;;;;;;;9.20;8.30;;;;;;;6.78;54.86;97997.88;5115849;28;20034;-74
2021/03/17 03:17:18;;;;;;;9.40;8.50;;;;;;;6.58;55.23;97989.03;5115779;28;20443;-77
2021/03/17 03:19:48;;;;;;;9.73;7.53;;;;;;;7.00;55.46;98053.72;5115787;28;20032;-78
2021/03/17 03:22:15;;;;;;;8.38;7.57;;;;;;;7.13;55.00;98064.31;5115801;28;20031;-76
2021/03/17 03:24:42;;;;;;;9.93;9.02;;;;;;;7.05;55.25;98043.47;5115489;28;20023;-77
2021/03/17 03:27:08;;;;;;;8.75;7.80;;;;;;;7.17;55.24;98059.47;5115808;28;20051;-81
2021/03/17 03:29:34;;;;;;;9.63;7.82;;;;;;;6.52;55.08;97966.19;5097510;28;20107;-77
2021/03/17 03:32:03;;;;;;;14.02;10.30;;;;;;;6.69;55.03;97996.41;5097343;28;20150;-80
2021/03/17 03:34:28;;;;;;;10.13;9.00;;;;;;;6.69;55.24;97991.16;5115425;28;20027;-78
2021/03/17 03:36:54;;;;;;;8.43;7.63;;;;;;;6.98;55.28;98059.16;5115559;28;20441;-78
2021/03/17 03:39:19;;;;;;;9.20;8.10;;;;;;;6.83;55.30;98047.16;5115305;28;20026;-79
2021/03/17 03:41:45;;;;;;;8.80;7.90;;;;;;;6.60;55.47;98010.63;5115435;28;20329;-78
2021/03/17 03:44:10;;;;;;;9.27;8.13;;;;;;;6.58;55.40;98002.94;5115086;28;20027;-77
2021/03/17 03:46:37;;;;;;;7.95;7.15;;;;;;;7.09;55.62;98070.94;5097532;28;20022;-76
2021/03/17 03:49:04;;;;;;;8.85;7.95;;;;;;;7.14;55.84;98073.00;5115320;28;20490;-79
2021/03/17 03:51:32;;;;;;;8.50;7.60;;;;;;;7.07;55.56;98093.94;5097219;28;20349;-80
2021/03/17 03:54:30;;;;;;;7.88;7.07;;;;;;;7.13;55.35;98068.75;5114954;28;20093;-78
2021/03/17 03:57:14;;;;;;;8.38;7.50;;;;;;;6.86;55.63;98038.88;5115333;28;20063;-80
2021/03/17 03:59:47;;;;;;;7.13;6.40;;;;;;;6.68;55.45;98010.47;5115170;28;20043;-81
2021/03/17 04:02:21;;;;;;;7.97;7.17;;;;;;;7.10;55.12;98075.19;5115278;28;20032;-80
2021/03/17 04:04:48;;;;;;;8.48;7.43;;;;;;;6.64;55.10;97999.56;5115080;28;20019;-77
2021/03/17 04:07:15;;;;;;;7.97;7.18;;;;;;;7.07;55.45;98080.00;5115083;28;20434;-77
2021/03/17 04:09:52;;;;;;;10.27;8.47;;;;;;;6.67;55.33;98041.16;5115010;28;20047;-79
2021/03/17 04:12:20;;;;;;;7.78;6.95;;;;;;;6.69;55.71;98030.50;5115199;28;20053;-79
2021/03/17 04:14:51;;;;;;;8.23;7.37;;;;;;;7.01;55.00;98068.47;5115684;28;20027;-77
2021/03/17 04:17:25;;;;;;;7.87;7.03;;;;;;;6.63;54.58;97987.47;5117369;28;20051;-75
2021/03/17 04:19:58;;;;;;;13.02;10.15;;;;;;;7.18;55.04;98084.72;5115327;28;20027;-79
2021/03/17 04:22:26;;;;;;;9.00;7.47;;;;;;;7.21;54.31;98082.53;5097111;28;20418;-81
2021/03/17 04:24:52;;;;;;;8.50;7.70;;;;;;;7.21;54.38;98092.22;5115157;28;20031;-75
2021/03/17 04:27:19;;;;;;;8.97;8.07;;;;;;;7.00;54.41;98053.72;5115117;28;20024;-77
2021/03/17 04:29:47;;;;;;;7.88;7.07;;;;;;;7.17;54.27;98081.28;5096841;28;20074;-79
2021/03/17 04:32:14;;;;;;;7.57;6.28;;;;;;;7.05;54.01;98042.66;5115177;28;20047;-77
2021/03/17 04:34:41;;;;;;;7.70;6.88;;;;;;;7.08;54.43;98060.63;5115491;28;20044;-79
2021/03/17 04:37:07;;;;;;;7.90;7.10;;;;;;;7.15;54.30;98072.00;5115211;28;20441;-76
2021/03/17 04:39:33;;;;;;;8.27;6.93;;;;;;;7.17;54.23;98088.34;5096647;28;20031;-75
2021/03/17 04:41:59;;;;;;;7.72;6.93;;;;;;;6.64;54.31;98002.19;5114771;28;20027;-73
2021/03/17 04:44:25;;;;;;;7.75;7.03;;;;;;;7.19;54.57;98086.34;5114693;28;20375;-78
2021/03/17 04:46:51;;;;;;;7.20;6.50;;;;;;;7.14;54.24;98073.81;5096685;28;20035;-77
2021/03/17 04:49:19;;;;;;;6.75;6.05;;;;;;;7.12;54.24;98062.69;5114939;28;20100;-75
2021/03/17 04:51:47;;;;;;;7.40;6.57;;;;;;;7.17;54.09;98067.34;5114901;28;20035;-79
2021/03/17 04:54:13;;;;;;;7.67;6.23;;;;;;;7.07;53.59;98062.44;5114570;28;20027;-76
2021/03/17 04:56:41;;;;;;;7.10;6.40;;;;;;;7.00;53.89;98074.72;5099015;28;20068;-76
2021/03/17 04:59:08;;;;;;;9.65;7.15;;;;;;;7.11;53.81;98076.00;5118350;28;20028;-77
2021/03/17 05:01:36;;;;;;;8.07;6.05;;;;;;;6.93;53.59;98066.78;5118348;28;20023;-77
2021/03/17 05:04:05;;;;;;;8.27;6.00;;;;;;;7.00;54.09;98078.16;5118546;28;20027;-78
2021/03/17 05:06:31;;;;;;;9.77;7.22;;;;;;;6.68;53.89;98055.06;5100117;28;20026;-76
2021/03/17 05:08:58;;;;;;;9.70;6.75;;;;;;;6.91;53.36;98047.00;5118335;28;20394;-77
2021/03/17 05:11:24;;;;;;;7.60;6.43;;;;;;;7.12;53.16;98082.88;5118097;28;20023;-77
2021/03/17 05:13:50;;;;;;;8.23;6.63;;;;;;;7.01;53.34;98071.91;5099991;28;20479;-78
2021/03/17 05:16:16;;;;;;;7.53;6.72;;;;;;;7.09;52.73;98064.88;5118168;28;20141;-77
2021/03/17 05:18:43;;;;;;;8.57;6.80;;;;;;;7.19;52.71;98088.97;5099860;28;20050;-76
2021/03/17 05:21:11;;;;;;;11.30;7.32;;;;;;;7.03;52.74;98073.53;5118265;28;20024;-78
2021/03/17 05:23:39;;;;;;;8.80;6.38;;;;;;;7.20;52.90;98124.72;5119887;28;20106;-75
2021/03/17 05:26:06;;;;;;;8.38;6.57;;;;;;;7.00;52.80;98053.72;5118463;28;20051;-80
2021/03/17 05:28:33;;;;;;;6.75;6.05;;;;;;;7.33;52.52;98088.06;5117941;28;20055;-79
2021/03/17 05:31:00;;;;;;;11.43;7.75;;;;;;;7.41;52.33;98089.72;5117925;28;20066;-78
2021/03/17 05:33:27;;;;;;;7.65;6.07;;;;;;;7.42;51.93;98089.53;5117784;28;20463;-78
2021/03/17 05:35:53;;;;;;;9.77;6.82;;;;;;;7.06;51.90;98045.09;5117856;28;20028;-76
2021/03/17 05:38:19;;;;;;;7.57;6.70;;;;;;;7.34;52.43;98085.22;5117670;28;20062;-76
2021/03/17 05:40:44;;;;;;;11.07;6.63;;;;;;;7.14;51.69;98058.06;5117490;28;20422;-76
2021/03/17 05:43:10;;;;;;;6.10;5.47;;;;;;;6.67;52.08;97988.69;5117467;28;20028;-76
2021/03/17 05:45:37;;;;;;;8.43;6.55;;;;;;;7.05;51.90;98069.69;5117334;28;20027;-75
2021/03/17 05:48:04;;;;;;;8.02;5.95;;;;;;;7.25;52.30;98101.31;5099388;28;20109;-76
2021/03/17 05:50:30;;;;;;;10.68;7.03;;;;;;;7.25;52.06;98110.00;5117317;28;20395;-76
2021/03/17 05:52:56;;;;;;;8.07;5.63;;;;;;;7.11;52.13;98081.25;5117244;28;20023;-76
2021/03/17 05:55:22;;;;;;;16.15;9.18;;;;;;;7.32;51.73;98099.56;5117247;28;20031;-75
2021/03/17 05:57:48;;;;;;;7.40;6.53;;;;;;;7.01;51.81;98069.28;5117297;28;20024;-76
2021/03/17 06:00:19;;;;;;;8.38;6.18;;;;;;;7.24;51.02;98087.38;5117158;28;20418;-76
2021/03/17 06:02:47;;;;;;;8.65;7.10;;;;;;;7.44;51.06;98102.50;5117187;28;20023;-77
2021/03/17 06:05:13;;;;;;;7.50;6.05;;;;;;;7.45;50.86;98099.66;5099127;28;20035;-75
2021/03/17 06:07:57;;;;;;;6.88;6.07;;;;;;;7.49;51.52;98113.22;5098680;28;20030;-76
2021/03/17 06:10:22;;;;;;;10.15;6.38;;;;;;;7.48;51.57;98115.03;5116865;28;20076;-75
2021/03/17 06:12:51;;;;;;;8.55;6.55;;;;;;;7.21;50.72;98074.66;5116836;28;20028;-75
2021/03/17 06:15:21;;;;;;;6.82;5.78;;;;;;;7.51;50.65;98126.97;5116951;28;20023;-75
2021/03/17 06:17:56;;;;;;;8.63;6.70;;;;;;;7.53;50.86;98114.47;5116834;28;20030;-75
2021/03/17 06:20:22;;;;;;;7.00;6.30;;;;;;;7.51;50.89;98119.91;5116714;28;20054;-74
2021/03/17 06:22:48;;;;;;;7.30;6.50;;;;;;;7.52;50.54;98132.03;5116826;28;20426;-75
2021/03/17 06:25:14;;;;;;;7.75;6.20;;;;;;;7.43;50.95;98119.22;5116583;28;20344;-75
2021/03/17 06:27:41;;;;;;;7.93;6.43;;;;;;;7.43;50.83;98104.31;5098526;28;20027;-75
2021/03/17 06:30:10;;;;;;;7.28;6.32;;;;;;;7.59;50.16;98126.81;5099168;28;20110;-76
2021/03/17 06:32:36;;;;;;;10.00;6.90;;;;;;;7.41;50.24;98061.63;5116472;28;20112;-76
2021/03/17 06:35:14;;;;;;;10.18;6.55;;;;;;;7.64;49.97;98119.16;5098655;28;20055;-75
2021/03/17 06:37:40;;;;;;;7.50;6.10;;;;;;;7.61;50.37;98123.00;5116335;28;20023;-76
2021/03/17 06:40:22;;;;;;;8.60;7.00;;;;;;;7.78;50.17;98135.81;5115128;28;20023;-78
2021/03/17 06:42:48;;;;;;;11.30;7.28;;;;;;;7.69;50.07;98129.09;5099312;28;20016;-81
2021/03/17 06:45:14;;;;;;;7.53;6.57;;;;;;;7.88;49.77;98146.78;5096290;28;20093;-80
2021/03/17 06:47:40;;;;;;;6.93;6.27;;;;;;;7.79;49.47;98134.81;5108501;28;20315;-82
2021/03/17 06:50:12;;;;;;;6.55;5.88;;;;;;;7.20;49.65;98059.09;5089820;28;20062;-81
2021/03/17 06:52:45;;;;;;;8.48;6.40;;;;;;;7.78;49.73;98148.94;5113212;28;20491;-78
2021/03/17 06:55:15;;;;;;;7.35;6.65;;;;;;;7.82;48.79;98142.28;5091746;28;20034;-77
2021/03/17 06:57:49;;;;;;;8.80;7.20;;;;;;;7.75;49.75;98150.13;5092979;28;20035;-85
2021/03/17 07:00:32;;;;;;;7.67;6.67;;;;;;;7.42;48.82;98076.38;5096080;28;20103;-81
2021/03/17 07:03:12;;;;;;;11.20;8.00;;;;;;;7.82;49.64;98158.88;5106813;28;20020;-79
2021/03/17 07:05:46;;;;;;;9.50;7.22;;;;;;;7.79;49.73;98135.59;5087192;28;20399;-81
2021/03/17 07:08:35;;;;;;;7.77;6.90;;;;;;;8.01;49.30;98154.72;5089677;22;20457;-78
2021/03/17 07:11:02;;;;;;;10.70;7.97;;;;;;;8.12;49.13;98172.56;5075590;28;20403;-78
2021/03/17 07:13:29;;;;;;;8.60;7.18;;;;;;;8.04;48.72;98162.22;5038424;28;20031;-80
2021/03/17 07:15:59;;;;;;;11.17;8.57;;;;;;;8.09;48.33;98175.56;5058033;28;20028;-81
2021/03/17 07:18:27;;;;;;;10.85;8.20;;;;;;;7.77;48.88;98115.78;5056790;28;20037;-76
2021/03/17 07:20:59;;;;;;;12.18;8.43;;;;;;;7.87;48.93;98148.59;5075517;28;20024;-76
2021/03/17 07:23:42;;;;;;;9.82;7.47;;;;;;;7.59;48.28;98143.38;5074229;28;20028;-77
2021/03/17 07:26:16;;;;;;;8.10;7.22;;;;;;;7.95;48.13;98171.25;5074873;28;20032;-77
2021/03/17 07:28:47;;;;;;;9.05;7.68;;;;;;;8.01;47.98;98152.09;5074543;28;20028;-81
2021/03/17 07:31:14;;;;;;;12.05;8.40;;;;;;;7.50;48.30;98118.28;5055511;28;20036;-76
2021/03/17 07:33:40;;;;;;;9.75;7.80;;;;;;;7.66;48.52;98106.66;5074380;28;20101;-80
2021/03/17 07:36:06;;;;;;;12.77;8.02;;;;;;;7.86;48.53;98148.78;5056020;28;20028;-78
2021/03/17 07:38:32;;;;;;;9.13;8.10;;;;;;;7.66;48.51;98096.13;5074728;28;20454;-77
2021/03/17 07:40:58;;;;;;;9.80;8.13;;;;;;;7.71;48.15;98116.56;5073390;28;20036;-77
2021/03/17 07:43:26;;;;;;;7.93;7.13;;;;;;;7.91;48.40;98146.38;5073567;28;20096;-75
2021/03/17 07:45:52;;;;;;;11.35;8.60;;;;;;;8.23;48.28;98169.41;5074229;28;20465;-76
2021/03/17 07:48:20;;;;;;;9.30;7.55;;;;;;;7.71;48.65;98098.19;5072305;28;20059;-77
2021/03/17 07:50:46;;;;;;;11.10;8.70;;;;;;;7.84;48.51;98142.91;5074039;28;20028;-81
2021/03/17 07:53:23;;;;;;;11.00;8.60;;;;;;;8.07;47.98;98198.63;5055217;28;20035;-75
2021/03/17 07:55:51;;;;;;;10.45;7.63;;;;;;;8.12;48.08;98184.88;5046869;28;20115;-80
2021/03/17 07:58:17;;;;;;;8.83;7.90;;;;;;;8.11;48.47;98202.47;5072725;28;20454;-82
2021/03/17 08:00:43;;;;;;;8.52;7.15;;;;;;;7.24;48.45;98057.72;5056249;28;20107;-78
2021/03/17 08:03:12;;;;;;;7.90;6.72;;;;;;;8.08;48.52;98191.53;5073777;28;20463;-81
2021/03/17 08:05:39;;;;;;;9.20;7.60;;;;;;;8.09;48.49;98191.34;5081590;28;20074;-81
2021/03/17 08:08:06;;;;;;;10.15;7.00;;;;;;;8.13;48.61;98197.84;5080836;28;20467;-80
2021/03/17 08:10:31;;;;;;;8.82;7.93;;;;;;;7.97;48.48;98203.41;5073882;28;20028;-84
2021/03/17 08:12:57;;;;;;;9.75;8.43;;;;;;;7.67;48.24;98133.72;5073741;28;20161;-78
2021/03/17 08:15:23;;;;;;;13.75;7.20;;;;;;;7.83;49.17;98168.38;5074012;28;20020;-82
2021/03/17 08:17:49;;;;;;;9.02;7.68;;;;;;;7.45;48.86;98123.31;5073509;28;20024;-77
2021/03/17 08:20:16;;;;;;;11.40;7.60;;;;;;;7.41;48.39;98110.72;5077128;28;20490;-78
2021/03/17 08:22:41;;;;;;;9.65;7.68;;;;;;;7.48;48.81;98116.84;5090012;28;20016;-79
2021/03/17 08:25:14;;;;;;;10.48;8.55;;;;;;;7.69;48.63;98126.47;5072143;28;20149;-84
2021/03/17 08:27:40;;;;;;;9.45;8.40;;;;;;;7.34;48.57;98073.91;5074009;28;20024;-77
2021/03/17 08:30:11;;;;;;;11.40;7.85;;;;;;;7.97;48.41;98227.06;5075396;28;20350;-77
2021/03/17 08:32:58;;;;;;;8.68;7.78;;;;;;;7.90;47.88;98182.34;5058985;28;20112;-79
2021/03/17 08:35:44;;;;;;;7.90;7.10;;;;;;;7.44;48.35;98097.22;5070998;28;20052;-76
2021/03/17 08:38:13;;;;;;;8.48;7.68;;;;;;;7.53;48.36;98109.19;5076934;28;20396;-78
2021/03/17 08:40:38;;;;;;;9.07;8.17;;;;;;;8.21;48.00;98204.78;5077402;28;20147;-77
2021/03/17 08:43:26;;;;;;;7.33;6.60;;;;;;;8.11;47.94;98210.38;5077931;28;20095;-79
2021/03/17 08:46:14;;;;;;;8.38;7.03;;;;;;;8.16;48.56;98234.25;5061749;28;20032;-78
2021/03/17 08:48:57;;;;;;;14.32;8.48;;;;;;;7.74;49.01;98177.41;5077480;28;20442;-79
2021/03/17 08:51:47;;;;;;;10.15;8.63;;;;;;;8.07;49.14;98230.16;5076105;28;20342;-77
2021/03/17 08:54:31;;;;;;;9.73;7.50;;;;;;;8.05;48.69;98220.84;5059543;28;20036;-77
2021/03/17 08:57:07;;;;;;;8.95;7.40;;;;;;;8.23;48.71;98229.06;5076931;28;20056;-78
2021/03/17 08:59:45;;;;;;;10.70;7.43;;;;;;;8.14;48.84;98231.00;5057503;28;20032;-84
2021/03/17 09:02:25;;;;;;;8.80;7.53;;;;;;;8.14;47.85;98241.53;5069258;28;20110;-80
2021/03/17 09:05:04;;;;;;;9.97;7.53;;;;;;;7.73;48.52;98182.88;5053874;28;20418;-82
2021/03/17 09:07:33;;;;;;;7.40;6.60;;;;;;;8.07;48.51;98239.88;5058666;28;20139;-84
2021/03/17 09:10:04;;;;;;;9.13;6.82;;;;;;;8.10;48.09;98248.16;5077186;28;20044;-78
2021/03/17 09:12:33;;;;;;;8.25;7.20;;;;;;;8.04;48.51;98242.88;5059328;28;20035;-82
2021/03/17 09:15:13;;;;;;;8.55;7.35;;;;;;;7.95;48.23;98250.09;5077220;28;20063;-78
2021/03/17 09:18:07;;;;;;;8.73;7.07;;;;;;;7.89;49.05;98249.06;5076559;28;20036;-76
2021/03/17 09:20:47;;;;;;;9.83;8.30;;;;;;;7.88;48.69;98260.56;5073779;28;20094;-77
2021/03/17 09:23:18;;;;;;;9.40;7.57;;;;;;;7.86;48.79;98248.63;5076764;28;20023;-77
2021/03/17 09:25:57;;;;;;;8.65;7.80;;;;;;;7.58;48.66;98191.66;5074757;28;20028;-77
2021/03/17 09:28:32;;;;;;;9.57;7.70;;;;;;;7.89;48.69;98225.41;5075128;28;20033;-78
2021/03/17 09:31:03;;;;;;;10.65;9.18;;;;;;;8.08;48.93;98247.56;5058611;28;20024;-81
2021/03/17 09:33:30;;;;;;;9.35;7.88;;;;;;;8.22;48.29;98244.03;5058249;28;20033;-76
2021/03/17 09:36:06;;;;;;;10.95;7.90;;;;;;;8.31;48.71;98270.97;5076608;28;20047;-77
2021/03/17 09:38:36;;;;;;;11.38;9.35;;;;;;;7.77;48.84;98155.19;5077074;28;20032;-77
2021/03/17 09:41:11;;;;;;;12.65;9.23;;;;;;;8.10;48.51;98235.03;5075893;28;20040;-76
2021/03/17 09:43:50;;;;;;;9.70;8.13;;;;;;;8.29;48.07;98250.13;5076632;28;20419;-79
2021/03/17 09:46:19;;;;;;;9.80;7.65;;;;;;;7.88;48.41;98213.28;5076572;28;20024;-77
2021/03/17 09:48:47;;;;;;;9.05;8.02;;;;;;;8.20;48.59;98267.06;5066993;28;20029;-82
2021/03/17 09:51:22;;;;;;;7.82;7.00;;;;;;;7.75;48.29;98222.88;5042910;28;20415;-78
2021/03/17 09:53:49;;;;;;;8.10;7.15;;;;;;;7.84;48.43;98254.06;5075824;28;20253;-76
2021/03/17 09:56:14;;;;;;;7.55;6.60;;;;;;;7.40;49.31;98209.69;5074819;28;20051;-77
2021/03/17 09:58:41;;;;;;;8.77;7.07;;;;;;;7.71;49.12;98232.97;5074583;28;20427;-77
2021/03/17 10:01:11;;;;;;;9.73;7.55;;;;;;;7.64;48.96;98229.50;5076366;28;20046;-81
2021/03/17 10:03:37;;;;;;;8.50;6.75;;;;;;;7.92;48.80;98274.16;5042909;28;20092;-79
2021/03/17 10:06:03;;;;;;;9.00;7.60;;;;;;;7.90;48.80;98261.19;5066945;28;20028;-78
2021/03/17 10:08:32;;;;;;;9.15;8.25;;;;;;;7.76;49.94;98279.69;5073573;28;20052;-78
2021/03/17 10:10:58;;;;;;;14.20;10.50;;;;;;;7.27;49.47;98194.63;5074671;28;20423;-80
2021/03/17 10:13:24;;;;;;;10.33;9.23;;;;;;;7.88;49.38;98318.38;5057114;28;20029;-79
2021/03/17 10:15:51;;;;;;;12.33;9.10;;;;;;;7.63;49.96;98251.50;5056481;28;20025;-86
2021/03/17 10:18:17;;;;;;;8.13;7.28;;;;;;;7.94;49.50;98301.03;5056335;28;20032;-81
2021/03/17 10:20:43;;;;;;;7.90;7.10;;;;;;;7.71;49.89;98242.66;5075598;28;20040;-79
2021/03/17 10:23:08;;;;;;;7.63;6.83;;;;;;;7.90;49.57;98290.09;5073814;28;20055;-80
2021/03/17 10:25:34;;;;;;;7.83;7.00;;;;;;;7.82;50.31;98286.81;5075032;28;20158;-79
2021/03/17 10:28:05;;;;;;;8.52;6.50;;;;;;;7.90;50.34;98290.09;5075926;28;20423;-78
2021/03/17 10:30:36;;;;;;;8.20;6.28;;;;;;;7.17;50.21;98206.47;5074933;28;20028;-83
2021/03/17 10:33:11;;;;;;;7.00;6.32;;;;;;;7.79;50.70;98302.94;5075840;28;20394;-81
2021/03/17 10:35:37;;;;;;;10.20;7.03;;;;;;;7.87;50.08;98295.75;5075845;28;20034;-81
2021/03/17 10:38:03;;;;;;;9.40;6.70;;;;;;;7.54;51.62;98302.56;5057960;28;20113;-80
2021/03/17 10:40:30;;;;;;;7.70;6.72;;;;;;;7.54;51.53;98318.31;5074850;28;20392;-81
2021/03/17 10:42:58;;;;;;;8.43;7.40;;;;;;;7.62;51.72;98319.00;5074581;28;20345;-80
2021/03/17 10:45:31;;;;;;;8.68;7.18;;;;;;;7.53;52.12;98324.56;5075453;28;20043;-83
2021/03/17 10:47:58;;;;;;;9.80;6.97;;;;;;;7.34;51.91;98299.72;5057144;28;20036;-80
2021/03/17 10:50:35;;;;;;;8.83;7.20;;;;;;;7.48;52.95;98326.94;5057282;28;20024;-76
2021/03/17 10:53:13;;;;;;;7.82;6.25;;;;;;;7.46;52.55;98329.75;5071185;28;20024;-76
2021/03/17 10:55:39;;;;;;;8.30;7.13;;;;;;;7.12;51.80;98263.97;5074309;28;20082;-78
2021/03/17 10:58:14;;;;;;;7.40;6.57;;;;;;;7.38;53.18;98300.16;5081777;28;20031;-75
2021/03/17 11:00:40;;;;;;;8.63;7.15;;;;;;;7.22;52.53;98283.66;5068067;28;20113;-75
2021/03/17 11:03:22;;;;;;;8.03;6.83;;;;;;;7.56;53.66;98329.44;5075020;28;20074;-77
2021/03/17 11:05:48;;;;;;;9.57;8.05;;;;;;;7.58;53.16;98333.50;5074704;28;20438;-77
2021/03/17 11:08:13;;;;;;;8.00;6.87;;;;;;;7.58;53.34;98340.56;5074898;28;20059;-76
2021/03/17 11:10:45;;;;;;;7.53;6.63;;;;;;;7.39;53.20;98317.53;5070756;28;20298;-77
2021/03/17 11:13:15;;;;;;;7.15;6.45;;;;;;;7.53;53.46;98330.63;5071451;28;20382;-76
2021/03/17 11:15:44;;;;;;;9.50;6.97;;;;;;;7.47;52.94;98336.63;5056661;28;20119;-79
2021/03/17 11:18:10;;;;;;;9.53;7.53;;;;;;;7.51;52.76;98334.44;5074285;28;20031;-77
2021/03/17 11:20:43;;;;;;;8.13;6.70;;;;;;;7.46;54.01;98327.13;5071884;28;20056;-76
2021/03/17 11:23:17;;;;;;;8.63;7.40;;;;;;;7.17;54.33;98290.47;5072613;28;20028;-77
2021/03/17 11:25:43;;;;;;;8.67;7.40;;;;;;;7.16;53.91;98286.22;5071552;28;20028;-76
2021/03/17 11:28:18;;;;;;;7.87;6.97;;;;;;;7.25;54.23;98293.78;5055934;28;20028;-76
2021/03/17 11:30:49;;;;;;;9.07;7.70;;;;;;;7.54;54.26;98337.50;5054569;28;20123;-76
2021/03/17 11:33:15;;;;;;;7.90;6.70;;;;;;;7.25;54.71;98291.16;5051701;28;20082;-77
2021/03/17 11:35:42;;;;;;;7.27;6.43;;;;;;;7.60;53.97;98356.94;5072026;28;20036;-77
2021/03/17 11:38:09;;;;;;;8.27;6.30;;;;;;;7.25;54.53;98317.41;5054405;28;20059;-76
2021/03/17 11:40:34;;;;;;;8.00;6.93;;;;;;;7.45;54.42;98329.94;5055657;28;20025;-77
2021/03/17 11:43:15;;;;;;;6.87;6.07;;;;;;;7.22;54.40;98296.78;5071635;28;20392;-79
2021/03/17 11:45:42;;;;;;;6.43;5.47;;;;;;;7.49;53.79;98339.06;5071268;28;20029;-79
2021/03/17 11:48:08;;;;;;;9.27;6.20;;;;;;;7.46;54.56;98342.88;5058076;28;20472;-84
2021/03/17 11:50:36;;;;;;;7.50;6.03;;;;;;;7.26;54.59;98320.84;5075759;28;20062;-77
2021/03/17 11:53:04;;;;;;;6.97;5.83;;;;;;;7.13;54.30;98318.09;5073305;28;20056;-78